• Join FlightAware (Why Join?)
  • Login
  • US Flag 
10:42AM EDT


 

Airport Tracker/Info


-or-


 

Live Flight TrackerFlight Track Log ✈ EJA122 ✈ 20-Jul-2013 ✈ KSFO - KJAC

Flight Track Log - Related Links

Times and Time Zones

All times are in EDT time to prevent confusion due to time zone crossing. See the EJA122 flight status page for this flight to view local times or setup timezone preferences in your user account.

Time Position Orientation Groundspeed Altitude Reporting Facility
EDT Latitude Longitude Course Direction KTS MPH feet Rate Location/Type
02:10PM 37.6500 -122.3333 28° Northeast 193 222 2,400  Level Northern Cal TRACON
02:11PM 37.7000 -122.2833 38° Northeast 211 243 4,400 1,560 Climbing Northern Cal TRACON
02:14PM 37.8133 -122.1489 43° Northeast 269 310 7,800 1,440 Climbing Oakland Center
02:15PM 37.8789 -122.0867 37° Northeast 290 334 9,400 1,620 Climbing Oakland Center
02:16PM 37.8161 -122.1671 28° Northeast  Level FlightAware Approximate
02:16PM 37.9608 -122.0103 36° Northeast 304 350 11,200  Level Oakland Center
02:17PM 38.0311 -121.9442 37° Northeast 312 359 12,800 1,500 Climbing Oakland Center
02:18PM 38.1017 -121.8769 37° Northeast 317 365 14,300 1,440 Climbing Oakland Center
02:19PM 38.1731 -121.8097 37° Northeast 319 367 15,800 1,500 Climbing Oakland Center
02:20PM 38.2444 -121.7414 37° Northeast 321 369 17,400 1,380 Climbing Oakland Center
02:21PM 38.2975 -121.6475 54° Northeast 327 376 18,700 1,200 Climbing Oakland Center
02:22PM 38.3564 -121.5469 53° Northeast 342 394 19,900 1,260 Climbing Oakland Center
02:23PM 38.4269 -121.4253 53° Northeast 355 409 21,300 1,140 Climbing Oakland Center
02:24PM 38.4881 -121.3197 53° Northeast 366 421 22,300 960 Climbing Oakland Center
02:25PM 38.5475 -121.2139 54° Northeast 367 422 23,300 960 Climbing Oakland Center
02:26PM 38.6033 -121.1147 54° Northeast 371 427 24,300 1,020 Climbing Oakland Center
02:27PM 38.6806 -120.9900 52° Northeast 377 434 25,500 1,020 Climbing Oakland Center
02:28PM 38.7628 -120.9053 39° Northeast 383 441 26,500 1,020 Climbing Oakland Center
02:29PM 38.8489 -120.8208 37° Northeast 389 448 27,600 1,020 Climbing Oakland Center
02:30PM 38.9233 -120.7189 47° Northeast 394 453 28,600 960 Climbing Oakland Center
02:31PM 38.9861 -120.6028 55° Northeast 395 455 29,600 1,020 Climbing Oakland Center
02:32PM 39.0508 -120.4847 55° Northeast 401 461 30,700 1,020 Climbing Oakland Center
02:33PM 39.1150 -120.3678 55° Northeast 402 463 31,700 1,020 Climbing Oakland Center
02:34PM 39.1811 -120.2497 54° Northeast 404 465 32,800 900 Climbing Oakland Center
02:35PM 39.2561 -120.1125 55° Northeast 411 473 33,600 540 Climbing Oakland Center
02:36PM 39.3242 -119.9883 55° Northeast 422 486 34,000 180 Climbing Oakland Center
02:37PM 39.3928 -119.8586 56° Northeast 436 502 34,000  Level Oakland Center
02:38PM 39.4672 -119.7231 55° Northeast 457 526 34,000  Level Oakland Center
02:39PM 39.5392 -119.5828 56° Northeast 465 535 34,000  Level Oakland Center
02:40PM 39.6153 -119.4419 55° Northeast 474 545 34,000  Level Oakland Center
02:41PM 39.6900 -119.2969 56° Northeast 478 550 34,000  Level Oakland Center
02:42PM 39.7811 -119.1253 55° Northeast 479 551 34,000 240 Level Oakland Center
02:43PM 39.8564 -118.9797 56° Northeast 481 554 34,600 480 Climbing Oakland Center
02:44PM 39.9286 -118.8394 56° Northeast 468 539 35,000 180 Climbing Oakland Center
02:45PM 40.0022 -118.6989 56° Northeast 465 535 35,000  Level Oakland Center
02:46PM 40.0767 -118.5533 56° Northeast 477 549 35,000  Level Oakland Center
02:48PM 40.1500 -118.4092 56° Northeast 476 548 35,000  Level Oakland Center
02:49PM 40.2244 -118.2631 56° Northeast 481 554 35,000  Level Oakland Center
02:50PM 40.3042 -118.1069 56° Northeast 485 558 35,000  Level Salt Lake Center
02:51PM 40.3764 -117.9664 56° Northeast 485 558 35,000  Level Salt Lake Center
02:52PM 40.4597 -117.8011 56° Northeast 486 559 35,000  Level Salt Lake Center
02:53PM 40.5306 -117.6581 57° Northeast 486 559 35,000  Level Salt Lake Center
02:54PM 40.6144 -117.4925 56° Northeast 486 559 35,000  Level Salt Lake Center
02:55PM 40.6847 -117.3481 57° Northeast 487 560 35,000  Level Salt Lake Center
02:56PM 40.7567 -117.2036 57° Northeast 488 562 35,000  Level Salt Lake Center
02:58PM 40.9108 -116.8883 57° Northeast 490 564 35,000  Level Salt Lake Center
02:59PM 40.9942 -116.7189 57° Northeast 489 563 35,000  Level Salt Lake Center
03:00PM 41.0647 -116.5739 57° Northeast 488 562 35,000  Level Salt Lake Center
03:01PM 41.1469 -116.4039 57° Northeast 489 563 35,000  Level Salt Lake Center
03:02PM 41.2169 -116.2578 57° Northeast 489 563 35,000  Level Salt Lake Center
03:03PM 41.2844 -116.1072 59° Northeast 492 566 35,000  Level Salt Lake Center
03:04PM 41.3658 -115.9364 58° Northeast 490 564 35,000  Level Salt Lake Center
03:05PM 41.4350 -115.7889 58° Northeast 491 565 35,000  Level Salt Lake Center
03:06PM 41.5158 -115.6167 58° Northeast 491 565 35,000  Level Salt Lake Center
03:07PM 41.5850 -115.4689 58° Northeast 490 564 35,000  Level Salt Lake Center
03:08PM 41.6661 -115.2964 58° Northeast 491 565 35,000  Level Salt Lake Center
03:09PM 41.7333 -115.1469 59° Northeast 489 563 35,000  Level Salt Lake Center
03:10PM 41.8136 -114.9744 58° Northeast 489 563 35,000  Level Salt Lake Center
03:11PM 41.8833 -114.8250 58° Northeast 495 570 35,000  Level Salt Lake Center
03:12PM 41.9622 -114.6494 59° Northeast 491 565 35,000  Level Salt Lake Center
03:13PM 42.0242 -114.5108 59° Northeast 492 566 35,000  Level Salt Lake Center
03:14PM 42.0950 -114.3539 59° Northeast 492 566 35,000  Level Salt Lake Center
03:15PM 42.1803 -114.1633 59° Northeast 494 568 35,000  Level Salt Lake Center
03:16PM 42.2492 -114.0072 59° Northeast 487 560 35,000  Level Salt Lake Center
03:17PM 42.3178 -113.8506 59° Northeast 485 558 35,000  Level Salt Lake Center
03:18PM 42.3858 -113.6939 60° Northeast 484 557 35,000  Level Salt Lake Center
03:19PM 42.4553 -113.5381 59° Northeast 483 556 35,000  Level Salt Lake Center
03:21PM 42.5242 -113.3822 59° Northeast 482 555 35,000  Level Salt Lake Center
03:22PM 42.6150 -113.2042 55° Northeast 477 549 35,000  Level Salt Lake Center
03:23PM 42.6886 -113.0592 55° Northeast 480 552 35,000  Level Salt Lake Center
03:24PM 42.7600 -112.9156 56° Northeast 480 552 35,000  Level Salt Lake Center
03:25PM 42.8439 -112.7458 56° Northeast 482 555 35,000 -180 Level Salt Lake Center
03:26PM 42.9164 -112.6025 55° Northeast 482 555 34,700 -1,020 Descending Salt Lake Center
03:27PM 43.0011 -112.4297 56° Northeast 490 564 33,000 -1,620 Descending Salt Lake Center
03:28PM 43.0725 -112.2822 56° Northeast 488 562 31,400 -1,800 Descending Salt Lake Center
03:29PM 43.1528 -112.1192 56° Northeast 465 535 29,400 -1,860 Descending Salt Lake Center
03:30PM 43.2208 -111.9803 56° Northeast 460 529 27,700 -1,800 Descending Salt Lake Center
03:31PM 43.2997 -111.8144 57° Northeast 465 535 25,800 -1,800 Descending Salt Lake Center
03:32PM 43.3683 -111.6736 56° Northeast 466 536 24,100 -1,800 Descending Salt Lake Center
03:33PM 43.4461 -111.5125 56° Northeast 459 528 22,100 -1,800 Descending Salt Lake Center
03:34PM 43.5117 -111.3733 57° Northeast 456 525 20,400 -1,680 Descending Salt Lake Center
03:35PM 43.5775 -111.2356 57° Northeast 454 522 18,700 -1,680 Descending Salt Lake Center
03:36PM 43.6519 -111.0781 57° Northeast 447 514 17,000 -1,320 Descending Salt Lake Center
03:37PM 43.7053 -110.9639 57° Northeast 406 467 16,000 -540 Descending Salt Lake Center
03:38PM 43.7481 -110.8719 57° Northeast 293 337 16,000 -60 Level Salt Lake Center
03:39PM 43.7869 -110.7878 57° Northeast 260 299 15,900 -540 Descending Salt Lake Center
03:40PM 43.8003 -110.7000 78° East 245 282 15,000 -1,740 Descending Salt Lake Center
03:41PM 43.7619 -110.6358 130° Southeast 228 262 12,400 -2,700 Descending Salt Lake Center
03:42PM 43.7092 -110.6706 205° Southwest 199 229 9,500 -2,280 Descending Salt Lake Center
03:43PM 43.6714 -110.7058 214° Southwest 177 204 7,800 -1,320 Descending Salt Lake Center
03:44PM 43.6308 -110.7272 201° Southwest 165 190 6,800 -1,020 Descending Salt Lake Center